sensor_id;sensor_type;location;lat;lon;timestamp;pressure;altitude;pressure_sealevel;temperature;humidity
29549;BME280;16487;53.094;8.800;2023-08-07T00:00:17;100577.44;;;16.01;100.00
29549;BME280;16487;53.094;8.800;2023-08-07T00:02:44;100571.03;;;16.01;100.00
29549;BME280;16487;53.094;8.800;2023-08-07T00:05:11;100578.75;;;15.62;100.00
29549;BME280;16487;53.094;8.800;2023-08-07T00:07:39;100603.72;;;15.60;100.00
29549;BME280;16487;53.094;8.800;2023-08-07T00:10:07;100624.72;;;16.18;100.00
29549;BME280;16487;53.094;8.800;2023-08-07T00:12:34;100615.53;;;16.17;100.00
29549;BME280;16487;53.094;8.800;2023-08-07T00:15:02;100614.47;;;16.15;100.00
29549;BME280;16487;53.094;8.800;2023-08-07T00:17:30;100616.41;;;16.09;100.00
29549;BME280;16487;53.094;8.800;2023-08-07T00:19:57;100639.06;;;15.90;100.00
29549;BME280;16487;53.094;8.800;2023-08-07T00:22:25;100651.34;;;15.78;100.00
29549;BME280;16487;53.094;8.800;2023-08-07T00:24:52;100681.03;;;15.94;100.00
29549;BME280;16487;53.094;8.800;2023-08-07T00:27:19;100699.03;;;16.26;100.00
29549;BME280;16487;53.094;8.800;2023-08-07T00:29:46;100694.28;;;16.32;100.00
29549;BME280;16487;53.094;8.800;2023-08-07T00:32:13;100689.13;;;16.30;100.00
29549;BME280;16487;53.094;8.800;2023-08-07T00:34:42;100691.34;;;16.26;100.00
29549;BME280;16487;53.094;8.800;2023-08-07T00:37:09;100709.16;;;15.94;100.00
29549;BME280;16487;53.094;8.800;2023-08-07T00:39:36;100719.34;;;16.06;100.00
29549;BME280;16487;53.094;8.800;2023-08-07T00:42:05;100738.97;;;16.30;100.00
29549;BME280;16487;53.094;8.800;2023-08-07T00:44:32;100742.69;;;16.36;100.00
29549;BME280;16487;53.094;8.800;2023-08-07T00:46:59;100741.06;;;16.05;100.00
29549;BME280;16487;53.094;8.800;2023-08-07T00:49:27;100754.09;;;16.18;100.00
29549;BME280;16487;53.094;8.800;2023-08-07T00:51:57;100738.56;;;16.08;100.00
29549;BME280;16487;53.094;8.800;2023-08-07T00:54:25;100742.63;;;16.07;100.00
29549;BME280;16487;53.094;8.800;2023-08-07T00:56:52;100747.84;;;15.99;100.00
29549;BME280;16487;53.094;8.800;2023-08-07T00:59:20;100746.47;;;15.94;100.00
29549;BME280;16487;53.094;8.800;2023-08-07T01:01:48;100751.56;;;16.05;100.00
29549;BME280;16487;53.094;8.800;2023-08-07T01:04:16;100751.09;;;16.21;100.00
29549;BME280;16487;53.094;8.800;2023-08-07T01:06:43;100748.75;;;15.81;100.00
29549;BME280;16487;53.094;8.800;2023-08-07T01:09:12;100758.31;;;15.98;100.00
29549;BME280;16487;53.094;8.800;2023-08-07T01:11:43;100742.00;;;15.64;100.00
29549;BME280;16487;53.094;8.800;2023-08-07T01:14:19;100746.78;;;15.73;100.00
29549;BME280;16487;53.094;8.800;2023-08-07T01:16:57;100755.69;;;15.71;100.00
29549;BME280;16487;53.094;8.800;2023-08-07T01:19:28;100748.22;;;15.68;100.00
29549;BME280;16487;53.094;8.800;2023-08-07T01:22:06;100750.44;;;15.64;100.00
29549;BME280;16487;53.094;8.800;2023-08-07T01:24:34;100762.31;;;15.59;100.00
29549;BME280;16487;53.094;8.800;2023-08-07T01:27:10;100759.59;;;15.41;100.00
29549;BME280;16487;53.094;8.800;2023-08-07T01:29:44;100761.78;;;15.37;100.00
29549;BME280;16487;53.094;8.800;2023-08-07T01:32:18;100764.13;;;15.48;100.00
29549;BME280;16487;53.094;8.800;2023-08-07T01:34:50;100773.94;;;15.43;100.00
29549;BME280;16487;53.094;8.800;2023-08-07T01:37:20;100796.06;;;15.50;100.00
29549;BME280;16487;53.094;8.800;2023-08-07T01:39:48;100810.28;;;15.38;100.00
29549;BME280;16487;53.094;8.800;2023-08-07T01:42:17;100823.66;;;15.84;100.00
29549;BME280;16487;53.094;8.800;2023-08-07T01:44:44;100801.97;;;15.61;100.00
29549;BME280;16487;53.094;8.800;2023-08-07T01:47:11;100800.25;;;15.87;100.00
29549;BME280;16487;53.094;8.800;2023-08-07T01:49:39;100781.50;;;15.84;100.00
29549;BME280;16487;53.094;8.800;2023-08-07T01:52:07;100761.56;;;15.82;100.00
29549;BME280;16487;53.094;8.800;2023-08-07T01:54:36;100759.31;;;15.86;100.00
29549;BME280;16487;53.094;8.800;2023-08-07T01:57:09;100744.94;;;15.37;100.00
29549;BME280;16487;53.094;8.800;2023-08-07T01:59:36;100757.97;;;15.82;100.00
29549;BME280;16487;53.094;8.800;2023-08-07T02:02:04;100732.13;;;15.45;100.00
29549;BME280;16487;53.094;8.800;2023-08-07T02:04:31;100760.22;;;15.69;100.00
29549;BME280;16487;53.094;8.800;2023-08-07T02:06:58;100760.88;;;15.31;100.00
29549;BME280;16487;53.094;8.800;2023-08-07T02:09:25;100777.38;;;15.71;100.00
29549;BME280;16487;53.094;8.800;2023-08-07T02:11:54;100772.09;;;15.40;100.00
29549;BME280;16487;53.094;8.800;2023-08-07T02:14:21;100800.22;;;15.64;100.00
29549;BME280;16487;53.094;8.800;2023-08-07T02:16:48;100806.97;;;15.57;100.00
29549;BME280;16487;53.094;8.800;2023-08-07T02:19:15;100802.84;;;15.35;100.00
29549;BME280;16487;53.094;8.800;2023-08-07T02:21:42;100801.75;;;15.32;100.00
29549;BME280;16487;53.094;8.800;2023-08-07T02:24:09;100815.06;;;15.64;100.00
29549;BME280;16487;53.094;8.800;2023-08-07T02:26:38;100814.03;;;15.76;100.00
29549;BME280;16487;53.094;8.800;2023-08-07T02:29:07;100801.19;;;15.84;100.00
29549;BME280;16487;53.094;8.800;2023-08-07T02:31:34;100790.53;;;15.88;100.00
29549;BME280;16487;53.094;8.800;2023-08-07T02:34:01;100774.91;;;15.40;100.00
29549;BME280;16487;53.094;8.800;2023-08-07T02:36:30;100784.41;;;15.75;100.00
29549;BME280;16487;53.094;8.800;2023-08-07T02:38:57;100783.25;;;15.82;100.00
29549;BME280;16487;53.094;8.800;2023-08-07T02:41:24;100764.06;;;15.80;100.00
29549;BME280;16487;53.094;8.800;2023-08-07T02:43:52;100751.25;;;15.79;100.00
29549;BME280;16487;53.094;8.800;2023-08-07T02:46:20;100748.44;;;15.79;100.00
29549;BME280;16487;53.094;8.800;2023-08-07T02:48:47;100735.34;;;15.76;100.00
29549;BME280;16487;53.094;8.800;2023-08-07T02:51:14;100743.13;;;15.81;100.00
29549;BME280;16487;53.094;8.800;2023-08-07T02:53:42;100720.03;;;15.77;100.00
29549;BME280;16487;53.094;8.800;2023-08-07T02:56:09;100723.16;;;15.79;100.00
29549;BME280;16487;53.094;8.800;2023-08-07T02:58:36;100707.84;;;15.80;100.00
29549;BME280;16487;53.094;8.800;2023-08-07T03:01:04;100704.38;;;15.85;100.00
29549;BME280;16487;53.094;8.800;2023-08-07T03:03:32;100693.19;;;15.76;100.00
29549;BME280;16487;53.094;8.800;2023-08-07T03:06:00;100685.56;;;15.77;100.00
29549;BME280;16487;53.094;8.800;2023-08-07T03:08:27;100682.56;;;15.80;100.00
29549;BME280;16487;53.094;8.800;2023-08-07T03:10:55;100678.38;;;15.76;100.00
29549;BME280;16487;53.094;8.800;2023-08-07T03:13:24;100684.69;;;15.38;100.00
29549;BME280;16487;53.094;8.800;2023-08-07T03:15:58;100684.97;;;15.73;100.00
29549;BME280;16487;53.094;8.800;2023-08-07T03:18:26;100678.56;;;15.72;100.00
29549;BME280;16487;53.094;8.800;2023-08-07T03:20:54;100675.94;;;15.45;100.00
29549;BME280;16487;53.094;8.800;2023-08-07T03:23:21;100704.94;;;15.75;100.00
29549;BME280;16487;53.094;8.800;2023-08-07T03:25:49;100699.91;;;15.79;100.00
29549;BME280;16487;53.094;8.800;2023-08-07T03:28:16;100688.75;;;15.84;100.00
29549;BME280;16487;53.094;8.800;2023-08-07T03:30:43;100687.53;;;15.85;100.00
29549;BME280;16487;53.094;8.800;2023-08-07T03:33:13;100685.94;;;15.84;100.00
29549;BME280;16487;53.094;8.800;2023-08-07T03:35:40;100677.06;;;15.86;100.00
29549;BME280;16487;53.094;8.800;2023-08-07T03:38:10;100681.28;;;15.81;100.00
29549;BME280;16487;53.094;8.800;2023-08-07T03:40:37;100678.41;;;15.90;100.00
29549;BME280;16487;53.094;8.800;2023-08-07T03:43:06;100674.44;;;15.97;100.00
29549;BME280;16487;53.094;8.800;2023-08-07T03:45:33;100656.34;;;15.98;100.00
29549;BME280;16487;53.094;8.800;2023-08-07T03:48:00;100663.91;;;16.07;100.00
29549;BME280;16487;53.094;8.800;2023-08-07T03:50:28;100678.19;;;15.79;100.00
29549;BME280;16487;53.094;8.800;2023-08-07T03:52:57;100654.97;;;15.93;100.00
29549;BME280;16487;53.094;8.800;2023-08-07T03:55:25;100655.38;;;16.01;100.00
29549;BME280;16487;53.094;8.800;2023-08-07T03:57:53;100641.88;;;15.90;100.00
29549;BME280;16487;53.094;8.800;2023-08-07T04:00:20;100654.09;;;15.87;100.00
29549;BME280;16487;53.094;8.800;2023-08-07T04:02:49;100657.38;;;15.86;100.00
29549;BME280;16487;53.094;8.800;2023-08-07T04:05:16;100646.78;;;15.81;100.00
29549;BME280;16487;53.094;8.800;2023-08-07T04:07:44;100662.09;;;15.80;100.00
29549;BME280;16487;53.094;8.800;2023-08-07T04:10:11;100677.00;;;15.71;100.00
29549;BME280;16487;53.094;8.800;2023-08-07T04:12:39;100673.81;;;15.31;100.00
29549;BME280;16487;53.094;8.800;2023-08-07T04:15:07;100676.78;;;15.60;100.00
29549;BME280;16487;53.094;8.800;2023-08-07T04:17:35;100682.00;;;15.53;100.00
29549;BME280;16487;53.094;8.800;2023-08-07T04:20:02;100689.94;;;15.54;100.00
29549;BME280;16487;53.094;8.800;2023-08-07T04:22:30;100693.06;;;15.56;100.00
29549;BME280;16487;53.094;8.800;2023-08-07T04:24:57;100693.19;;;15.29;100.00
29549;BME280;16487;53.094;8.800;2023-08-07T04:27:26;100696.88;;;15.44;100.00
29549;BME280;16487;53.094;8.800;2023-08-07T04:29:54;100697.16;;;15.46;100.00
29549;BME280;16487;53.094;8.800;2023-08-07T04:32:23;100699.88;;;15.41;100.00
29549;BME280;16487;53.094;8.800;2023-08-07T04:34:52;100711.56;;;15.39;100.00
29549;BME280;16487;53.094;8.800;2023-08-07T04:37:20;100720.88;;;15.45;100.00
29549;BME280;16487;53.094;8.800;2023-08-07T04:39:47;100734.03;;;15.39;100.00
29549;BME280;16487;53.094;8.800;2023-08-07T04:42:14;100724.63;;;15.51;100.00
29549;BME280;16487;53.094;8.800;2023-08-07T04:44:41;100722.25;;;15.50;100.00
29549;BME280;16487;53.094;8.800;2023-08-07T04:47:09;100719.25;;;15.53;100.00
29549;BME280;16487;53.094;8.800;2023-08-07T04:49:37;100711.38;;;15.10;100.00
29549;BME280;16487;53.094;8.800;2023-08-07T04:52:04;100733.22;;;15.39;100.00
29549;BME280;16487;53.094;8.800;2023-08-07T04:54:50;100716.16;;;15.19;100.00
29549;BME280;16487;53.094;8.800;2023-08-07T04:57:18;100752.22;;;15.53;100.00
29549;BME280;16487;53.094;8.800;2023-08-07T04:59:45;100733.41;;;15.44;100.00
29549;BME280;16487;53.094;8.800;2023-08-07T05:02:14;100732.00;;;15.40;100.00
29549;BME280;16487;53.094;8.800;2023-08-07T05:04:41;100722.44;;;15.46;100.00
29549;BME280;16487;53.094;8.800;2023-08-07T05:07:08;100725.97;;;15.56;100.00
29549;BME280;16487;53.094;8.800;2023-08-07T05:09:35;100713.28;;;15.60;100.00
29549;BME280;16487;53.094;8.800;2023-08-07T05:12:03;100703.25;;;15.45;100.00
29549;BME280;16487;53.094;8.800;2023-08-07T05:14:31;100706.19;;;15.50;100.00
29549;BME280;16487;53.094;8.800;2023-08-07T05:16:58;100693.44;;;15.64;100.00
29549;BME280;16487;53.094;8.800;2023-08-07T05:19:27;100677.31;;;15.50;100.00
29549;BME280;16487;53.094;8.800;2023-08-07T05:21:54;100667.34;;;15.49;100.00
29549;BME280;16487;53.094;8.800;2023-08-07T05:24:22;100671.88;;;15.46;100.00
29549;BME280;16487;53.094;8.800;2023-08-07T05:26:49;100669.72;;;15.41;100.00
29549;BME280;16487;53.094;8.800;2023-08-07T05:29:16;100666.56;;;15.72;100.00
29549;BME280;16487;53.094;8.800;2023-08-07T05:31:43;100657.63;;;15.73;100.00
29549;BME280;16487;53.094;8.800;2023-08-07T05:34:10;100642.91;;;15.78;100.00
29549;BME280;16487;53.094;8.800;2023-08-07T05:36:39;100622.72;;;15.65;100.00
29549;BME280;16487;53.094;8.800;2023-08-07T05:39:06;100617.63;;;15.40;100.00
29549;BME280;16487;53.094;8.800;2023-08-07T05:41:33;100623.91;;;15.73;100.00
29549;BME280;16487;53.094;8.800;2023-08-07T05:44:00;100596.59;;;15.74;100.00
29549;BME280;16487;53.094;8.800;2023-08-07T05:46:27;100596.31;;;15.72;100.00
29549;BME280;16487;53.094;8.800;2023-08-07T05:48:55;100590.00;;;15.91;100.00
29549;BME280;16487;53.094;8.800;2023-08-07T05:51:22;100577.81;;;15.80;100.00
29549;BME280;16487;53.094;8.800;2023-08-07T05:53:50;100564.91;;;15.88;100.00
29549;BME280;16487;53.094;8.800;2023-08-07T05:56:17;100547.75;;;16.00;100.00
29549;BME280;16487;53.094;8.800;2023-08-07T05:58:44;100538.94;;;16.08;100.00
29549;BME280;16487;53.094;8.800;2023-08-07T06:01:11;100523.22;;;16.16;100.00
29549;BME280;16487;53.094;8.800;2023-08-07T06:03:39;100495.47;;;16.23;100.00
29549;BME280;16487;53.094;8.800;2023-08-07T06:06:06;100468.28;;;15.85;100.00
29549;BME280;16487;53.094;8.800;2023-08-07T06:08:33;100462.81;;;16.26;100.00
29549;BME280;16487;53.094;8.800;2023-08-07T06:11:01;100442.00;;;16.03;100.00
29549;BME280;16487;53.094;8.800;2023-08-07T06:13:29;100432.06;;;16.22;100.00
29549;BME280;16487;53.094;8.800;2023-08-07T06:16:02;100428.78;;;16.44;100.00
29549;BME280;16487;53.094;8.800;2023-08-07T06:18:30;100402.38;;;16.56;100.00
29549;BME280;16487;53.094;8.800;2023-08-07T06:20:57;100383.66;;;16.53;100.00
29549;BME280;16487;53.094;8.800;2023-08-07T06:23:24;100358.06;;;16.71;100.00
29549;BME280;16487;53.094;8.800;2023-08-07T06:25:51;100354.38;;;16.65;100.00
29549;BME280;16487;53.094;8.800;2023-08-07T06:28:25;100332.44;;;16.69;100.00
29549;BME280;16487;53.094;8.800;2023-08-07T06:30:52;100324.88;;;16.80;100.00
29549;BME280;16487;53.094;8.800;2023-08-07T06:33:19;100323.94;;;16.89;100.00
29549;BME280;16487;53.094;8.800;2023-08-07T06:35:46;100321.13;;;16.23;100.00
29549;BME280;16487;53.094;8.800;2023-08-07T06:38:13;100341.03;;;16.60;100.00
29549;BME280;16487;53.094;8.800;2023-08-07T06:40:40;100342.97;;;16.74;100.00
29549;BME280;16487;53.094;8.800;2023-08-07T06:43:08;100356.91;;;16.83;100.00
29549;BME280;16487;53.094;8.800;2023-08-07T06:45:36;100354.41;;;17.16;100.00
29549;BME280;16487;53.094;8.800;2023-08-07T06:48:04;100316.16;;;17.04;100.00
29549;BME280;16487;53.094;8.800;2023-08-07T06:50:31;100329.50;;;16.58;100.00
29549;BME280;16487;53.094;8.800;2023-08-07T06:52:58;100360.47;;;16.43;100.00
29549;BME280;16487;53.094;8.800;2023-08-07T06:55:25;100376.03;;;16.39;100.00
29549;BME280;16487;53.094;8.800;2023-08-07T06:57:52;100412.31;;;16.37;100.00
29549;BME280;16487;53.094;8.800;2023-08-07T07:00:19;100437.06;;;16.33;100.00
29549;BME280;16487;53.094;8.800;2023-08-07T07:02:48;100452.50;;;16.23;100.00
29549;BME280;16487;53.094;8.800;2023-08-07T07:05:15;100462.22;;;16.22;100.00
29549;BME280;16487;53.094;8.800;2023-08-07T07:07:46;100475.66;;;15.97;100.00
29549;BME280;16487;53.094;8.800;2023-08-07T07:10:13;100514.31;;;16.17;100.00
29549;BME280;16487;53.094;8.800;2023-08-07T07:12:40;100503.13;;;16.23;100.00
29549;BME280;16487;53.094;8.800;2023-08-07T07:15:08;100507.84;;;16.31;100.00
29549;BME280;16487;53.094;8.800;2023-08-07T07:17:36;100525.13;;;16.39;100.00
29549;BME280;16487;53.094;8.800;2023-08-07T07:20:05;100538.50;;;16.58;100.00
29549;BME280;16487;53.094;8.800;2023-08-07T07:22:32;100518.31;;;16.60;100.00
29549;BME280;16487;53.094;8.800;2023-08-07T07:24:59;100513.94;;;16.59;100.00
29549;BME280;16487;53.094;8.800;2023-08-07T07:27:27;100499.31;;;16.75;100.00
29549;BME280;16487;53.094;8.800;2023-08-07T07:29:54;100481.50;;;16.83;100.00
29549;BME280;16487;53.094;8.800;2023-08-07T07:32:21;100451.75;;;16.77;100.00
29549;BME280;16487;53.094;8.800;2023-08-07T07:34:48;100445.84;;;16.95;100.00
29549;BME280;16487;53.094;8.800;2023-08-07T07:37:17;100409.63;;;17.08;100.00
29549;BME280;16487;53.094;8.800;2023-08-07T07:39:44;100381.16;;;17.26;100.00
29549;BME280;16487;53.094;8.800;2023-08-07T07:42:11;100341.56;;;17.41;100.00
29549;BME280;16487;53.094;8.800;2023-08-07T07:44:39;100271.88;;;17.72;100.00
29549;BME280;16487;53.094;8.800;2023-08-07T07:47:07;100181.25;;;17.90;100.00
29549;BME280;16487;53.094;8.800;2023-08-07T07:49:39;100097.44;;;17.96;100.00
29549;BME280;16487;53.094;8.800;2023-08-07T07:52:06;99996.13;;;17.54;100.00
29549;BME280;16487;53.094;8.800;2023-08-07T07:54:35;99948.25;;;17.71;100.00
29549;BME280;16487;53.094;8.800;2023-08-07T07:57:03;99872.66;;;17.80;100.00
29549;BME280;16487;53.094;8.800;2023-08-07T07:59:30;99856.78;;;17.88;100.00
29549;BME280;16487;53.094;8.800;2023-08-07T08:01:57;99851.59;;;18.03;100.00
29549;BME280;16487;53.094;8.800;2023-08-07T08:04:24;99776.78;;;17.91;100.00
29549;BME280;16487;53.094;8.800;2023-08-07T08:06:52;99761.78;;;18.29;100.00
29549;BME280;16487;53.094;8.800;2023-08-07T08:09:19;99694.19;;;18.59;100.00
29549;BME280;16487;53.094;8.800;2023-08-07T08:11:47;99644.50;;;18.45;100.00
29549;BME280;16487;53.094;8.800;2023-08-07T08:14:17;99588.78;;;18.16;100.00
29549;BME280;16487;53.094;8.800;2023-08-07T08:16:44;99568.59;;;18.06;100.00
29549;BME280;16487;53.094;8.800;2023-08-07T08:19:11;99597.06;;;18.03;100.00
29549;BME280;16487;53.094;8.800;2023-08-07T08:21:38;99540.41;;;18.01;100.00
29549;BME280;16487;53.094;8.800;2023-08-07T08:24:07;99479.31;;;17.85;100.00
29549;BME280;16487;53.094;8.800;2023-08-07T08:26:34;99469.28;;;17.89;100.00
29549;BME280;16487;53.094;8.800;2023-08-07T08:29:03;99411.13;;;18.16;100.00
29549;BME280;16487;53.094;8.800;2023-08-07T08:31:30;99403.88;;;18.69;100.00
29549;BME280;16487;53.094;8.800;2023-08-07T08:33:57;99317.84;;;18.57;100.00
29549;BME280;16487;53.094;8.800;2023-08-07T08:36:24;99315.25;;;18.96;100.00
29549;BME280;16487;53.094;8.800;2023-08-07T08:38:51;99253.88;;;19.73;100.00
29549;BME280;16487;53.094;8.800;2023-08-07T08:41:19;99214.63;;;19.56;100.00
29549;BME280;16487;53.094;8.800;2023-08-07T08:43:49;99212.53;;;19.44;100.00
29549;BME280;16487;53.094;8.800;2023-08-07T08:46:20;99177.09;;;18.98;100.00
29549;BME280;16487;53.094;8.800;2023-08-07T08:48:50;99171.88;;;18.89;100.00
29549;BME280;16487;53.094;8.800;2023-08-07T08:51:19;99200.16;;;19.02;100.00
29549;BME280;16487;53.094;8.800;2023-08-07T08:53:47;99195.50;;;18.73;100.00
29549;BME280;16487;53.094;8.800;2023-08-07T08:56:14;99178.56;;;18.73;100.00
29549;BME280;16487;53.094;8.800;2023-08-07T08:58:42;99153.94;;;18.86;100.00
29549;BME280;16487;53.094;8.800;2023-08-07T09:01:11;99163.66;;;19.04;100.00
29549;BME280;16487;53.094;8.800;2023-08-07T09:03:41;99162.16;;;19.03;100.00
29549;BME280;16487;53.094;8.800;2023-08-07T09:06:08;99170.41;;;19.01;100.00
29549;BME280;16487;53.094;8.800;2023-08-07T09:08:38;99228.13;;;18.87;100.00
29549;BME280;16487;53.094;8.800;2023-08-07T09:11:08;99290.66;;;18.35;100.00
29549;BME280;16487;53.094;8.800;2023-08-07T09:13:36;99379.06;;;17.89;100.00
29549;BME280;16487;53.094;8.800;2023-08-07T09:16:04;99632.56;;;16.58;100.00
29549;BME280;16487;53.094;8.800;2023-08-07T09:18:33;99875.63;;;15.87;100.00
29549;BME280;16487;53.094;8.800;2023-08-07T09:21:02;100046.06;;;15.45;100.00
29549;BME280;16487;53.094;8.800;2023-08-07T09:23:30;100152.66;;;15.19;100.00
29549;BME280;16487;53.094;8.800;2023-08-07T09:26:01;100271.28;;;15.34;100.00
29549;BME280;16487;53.094;8.800;2023-08-07T09:28:29;100324.88;;;15.45;100.00
29549;BME280;16487;53.094;8.800;2023-08-07T09:30:56;100342.31;;;15.84;100.00
29549;BME280;16487;53.094;8.800;2023-08-07T09:33:26;100352.13;;;16.09;100.00
29549;BME280;16487;53.094;8.800;2023-08-07T09:35:57;100300.59;;;16.17;100.00
29549;BME280;16487;53.094;8.800;2023-08-07T09:38:28;100288.00;;;16.33;100.00
29549;BME280;16487;53.094;8.800;2023-08-07T09:40:57;100236.31;;;16.76;100.00
29549;BME280;16487;53.094;8.800;2023-08-07T09:43:24;100172.53;;;17.88;100.00
29549;BME280;16487;53.094;8.800;2023-08-07T09:45:51;99992.31;;;18.35;100.00
29549;BME280;16487;53.094;8.800;2023-08-07T09:48:23;99829.38;;;18.63;100.00
29549;BME280;16487;53.094;8.800;2023-08-07T09:50:50;99669.69;;;19.32;100.00
29549;BME280;16487;53.094;8.800;2023-08-07T09:53:18;99533.00;;;19.54;100.00
29549;BME280;16487;53.094;8.800;2023-08-07T09:55:53;99266.84;;;20.07;100.00
29549;BME280;16487;53.094;8.800;2023-08-07T09:58:21;99041.94;;;20.47;100.00
29549;BME280;16487;53.094;8.800;2023-08-07T10:00:49;98896.72;;;20.60;100.00
29549;BME280;16487;53.094;8.800;2023-08-07T10:03:16;98911.28;;;19.74;100.00
29549;BME280;16487;53.094;8.800;2023-08-07T10:05:43;98970.56;;;19.07;100.00
29549;BME280;16487;53.094;8.800;2023-08-07T10:08:11;98918.63;;;18.18;100.00
29549;BME280;16487;53.094;8.800;2023-08-07T10:10:38;98946.88;;;18.00;100.00
29549;BME280;16487;53.094;8.800;2023-08-07T10:13:07;98953.09;;;17.80;100.00
29549;BME280;16487;53.094;8.800;2023-08-07T10:15:35;98972.16;;;18.05;100.00
29549;BME280;16487;53.094;8.800;2023-08-07T10:18:02;98958.44;;;18.28;100.00
29549;BME280;16487;53.094;8.800;2023-08-07T10:20:30;98964.72;;;18.53;100.00
29549;BME280;16487;53.094;8.800;2023-08-07T10:23:04;98970.56;;;18.68;100.00
29549;BME280;16487;53.094;8.800;2023-08-07T10:25:34;98958.78;;;19.29;100.00
29549;BME280;16487;53.094;8.800;2023-08-07T10:28:03;98979.31;;;19.29;100.00
29549;BME280;16487;53.094;8.800;2023-08-07T10:30:34;98999.19;;;19.63;100.00
29549;BME280;16487;53.094;8.800;2023-08-07T10:33:02;99058.41;;;20.02;100.00
29549;BME280;16487;53.094;8.800;2023-08-07T10:35:32;99123.44;;;19.56;100.00
29549;BME280;16487;53.094;8.800;2023-08-07T10:38:05;99131.66;;;19.27;100.00
29549;BME280;16487;53.094;8.800;2023-08-07T10:40:33;99104.59;;;19.84;100.00
29549;BME280;16487;53.094;8.800;2023-08-07T10:43:13;99154.78;;;19.26;100.00
29549;BME280;16487;53.094;8.800;2023-08-07T10:45:41;99075.47;;;18.21;100.00
29549;BME280;16487;53.094;8.800;2023-08-07T10:48:11;98996.06;;;17.67;100.00
29549;BME280;16487;53.094;8.800;2023-08-07T10:50:56;99212.78;;;17.65;100.00
29549;BME280;16487;53.094;8.800;2023-08-07T10:53:29;99412.88;;;16.67;100.00
29549;BME280;16487;53.094;8.800;2023-08-07T10:55:57;99611.81;;;16.78;100.00
29549;BME280;16487;53.094;8.800;2023-08-07T10:58:29;99652.75;;;17.12;100.00
29549;BME280;16487;53.094;8.800;2023-08-07T11:01:17;99602.06;;;17.06;100.00
29549;BME280;16487;53.094;8.800;2023-08-07T11:03:44;99603.88;;;16.93;100.00
29549;BME280;16487;53.094;8.800;2023-08-07T11:06:12;99575.91;;;17.23;100.00
29549;BME280;16487;53.094;8.800;2023-08-07T11:08:40;99444.44;;;17.88;100.00
29549;BME280;16487;53.094;8.800;2023-08-07T11:11:07;99245.53;;;18.54;100.00
29549;BME280;16487;53.094;8.800;2023-08-07T11:13:34;99092.66;;;18.37;100.00
29549;BME280;16487;53.094;8.800;2023-08-07T11:16:02;99038.75;;;18.85;100.00
29549;BME280;16487;53.094;8.800;2023-08-07T11:18:31;99036.38;;;19.28;100.00
29549;BME280;16487;53.094;8.800;2023-08-07T11:20:59;99022.97;;;20.01;100.00
29549;BME280;16487;53.094;8.800;2023-08-07T11:23:26;99038.47;;;20.62;100.00
29549;BME280;16487;53.094;8.800;2023-08-07T11:25:53;99144.44;;;21.64;100.00
29549;BME280;16487;53.094;8.800;2023-08-07T11:28:21;99293.28;;;21.50;100.00
29549;BME280;16487;53.094;8.800;2023-08-07T11:30:50;99962.03;;;22.09;100.00
29549;BME280;16487;53.094;8.800;2023-08-07T11:33:18;100696.03;;;21.77;100.00
29549;BME280;16487;53.094;8.800;2023-08-07T11:35:47;100790.97;;;20.66;100.00
29549;BME280;16487;53.094;8.800;2023-08-07T11:38:29;100807.56;;;21.28;100.00
29549;BME280;16487;53.094;8.800;2023-08-07T11:40:57;100863.38;;;20.89;100.00
29549;BME280;16487;53.094;8.800;2023-08-07T11:43:24;100893.66;;;21.41;100.00
29549;BME280;16487;53.094;8.800;2023-08-07T11:45:53;100954.53;;;22.18;100.00
29549;BME280;16487;53.094;8.800;2023-08-07T11:48:23;100994.78;;;21.94;100.00
29549;BME280;16487;53.094;8.800;2023-08-07T11:50:53;101021.88;;;22.34;100.00
29549;BME280;16487;53.094;8.800;2023-08-07T11:53:20;101034.72;;;22.79;100.00
29549;BME280;16487;53.094;8.800;2023-08-07T11:55:51;101071.47;;;22.55;100.00
29549;BME280;16487;53.094;8.800;2023-08-07T11:58:18;101093.31;;;21.77;100.00
29549;BME280;16487;53.094;8.800;2023-08-07T12:00:46;101082.81;;;22.33;100.00
29549;BME280;16487;53.094;8.800;2023-08-07T12:03:27;101101.94;;;22.43;100.00
29549;BME280;16487;53.094;8.800;2023-08-07T12:05:57;101094.41;;;21.85;100.00
29549;BME280;16487;53.094;8.800;2023-08-07T12:08:24;101090.31;;;22.25;100.00
29549;BME280;16487;53.094;8.800;2023-08-07T12:10:53;101120.72;;;23.13;100.00
29549;BME280;16487;53.094;8.800;2023-08-07T12:13:24;101115.31;;;21.93;100.00
29549;BME280;16487;53.094;8.800;2023-08-07T12:15:52;101100.38;;;20.49;100.00
29549;BME280;16487;53.094;8.800;2023-08-07T12:18:20;101075.34;;;19.86;100.00
29549;BME280;16487;53.094;8.800;2023-08-07T12:20:48;101053.41;;;19.55;100.00
29549;BME280;16487;53.094;8.800;2023-08-07T12:23:18;101005.69;;;19.37;100.00
29549;BME280;16487;53.094;8.800;2023-08-07T12:25:47;100965.69;;;18.78;100.00
29549;BME280;16487;53.094;8.800;2023-08-07T12:28:15;100845.75;;;18.34;100.00
29549;BME280;16487;53.094;8.800;2023-08-07T12:30:44;100632.78;;;18.03;100.00
29549;BME280;16487;53.094;8.800;2023-08-07T12:33:12;100122.31;;;18.03;100.00
29549;BME280;16487;53.094;8.800;2023-08-07T12:35:40;100109.56;;;18.80;100.00
29549;BME280;16487;53.094;8.800;2023-08-07T12:38:07;100350.94;;;19.45;100.00
29549;BME280;16487;53.094;8.800;2023-08-07T12:40:36;100455.31;;;19.93;100.00
29549;BME280;16487;53.094;8.800;2023-08-07T12:43:04;100586.03;;;20.35;100.00
29549;BME280;16487;53.094;8.800;2023-08-07T12:45:31;100774.19;;;20.34;100.00
29549;BME280;16487;53.094;8.800;2023-08-07T12:48:02;100790.47;;;20.03;100.00